upt.ro alexa rank chart, upt.ro alexa rank daily changes

upt.ro alexa rank chart, upt.ro alexa rank daily changes

upt.ro
Actual rank:
103 220

RANK HISTORY

Date Rank Diff
2018/10/18 103 220 -7 455
2018/10/17 110 675 +17 988
2018/10/16 92 687 -11 844
2018/10/15 104 531 +10 116
2018/10/14 94 415 -49 118
2018/10/13 143 533 +35 786
2018/10/12 107 747 +29 516
2018/10/11 78 231 -33 162
2018/10/10 111 393 +49 796
2018/10/09 61 597 -250 862
2018/10/08 312 459 +208 549
2018/10/07 103 910 +2 934
2018/10/06 100 976 -77 485
2018/10/05 178 461 +52 003
2018/10/04 126 458 +31 849
2018/10/03 94 609 -6 969
2018/10/02 101 578 -41 628
2018/10/01 143 206 -28 358
2018/09/30 171 564 +41 004
2018/09/29 130 560 +50 393
2018/09/28 80 167 +12 905
2018/09/27 67 262 -20 236
2018/09/26 87 498 -44 944
2018/09/25 132 442 +16 423
2018/09/24 116 019 +1 494
2018/09/23 114 525 +21 497
2018/09/22 93 028 -222 722
2018/09/21 315 750 +211 303
2018/09/20 104 447 +62 033
2018/09/19 42 414 +6 566
2018/09/18 35 848 -126 526
2018/09/17 162 374 -54 829
2018/09/16 217 203 +107 276
2018/09/15 109 927 -56 036
2018/09/14 165 963 +49 512
2018/09/13 116 451 -31 298
2018/09/12 147 749 -1 301
2018/09/11 149 050 -8 621
2018/09/10 157 671 +67 539
2018/09/09 90 132 +757
2018/09/08 89 375 -35 279
2018/09/07 124 654 -33 553
2018/09/06 158 207 +70 934
2018/09/05 87 273 -178 822
2018/09/04 266 095 -639 493
2018/09/03 905 588 +705 485
2018/09/02 200 103 +126 835
2018/09/01 73 268 -78 783
2018/08/31 152 051 +19 340
2018/08/30 132 711 -63 673
2018/08/29 196 384 -93 541
2018/08/28 289 925 +52 966
2018/08/27 236 959 +27 118
2018/08/26 209 841 +127 814
2018/08/25 82 027 -84 123
2018/08/24 166 150 -82 530
2018/08/23 248 680 -68 108
2018/08/22 316 788 +58 758
2018/08/20 258 030 +53 296
2018/08/19 204 734

WIDGET FOR YOUR SITE

DOMAINS WITH THE NEAREST RANK

Domain Rank
oxzwc.xyz 103 215
salesmanagopush.com 103 216
motorsportauctions.com 103 217
tashilgostar.com 103 218
notable-quotes.com 103 219
upt.ro 103 220
realtalkshow.com 103 221
bpm-power.com 103 222
ilmanifesto.it 103 223
it.wordpress.com 103 224
miodottore.it 103 225

DOMAINS WITH THE NEAREST RANK BY TLD .ro

Domain Rank
brdoffice.ro 101 804
ziarullumina.ro 102 036
hallo.ro 102 045
avantaje.ro 102 695
republica.ro 103 137
upt.ro 103 220
elle.ro 103 303
amway.ro 103 529
kaufland.ro 103 641
resursecrestine.ro 103 755
amfostacolo.ro 103 889